createdAt,value
2022-11-14T02:12:16.681Z,51.074642
2022-11-14T02:13:16.565Z,51.074543
2022-11-14T02:14:17.140Z,51.074539
2022-11-14T02:15:16.375Z,51.074505
2022-11-14T02:16:16.354Z,51.074532
2022-11-14T02:17:31.716Z,51.074486
2022-11-14T02:18:18.419Z,51.074482
2022-11-14T02:19:16.315Z,51.074501
2022-11-14T02:20:16.315Z,51.074463
2022-11-14T02:21:16.348Z,51.074471
2022-11-14T02:22:16.301Z,51.074417
2022-11-14T02:23:16.297Z,51.074368
2022-11-14T02:24:16.380Z,51.074387
2022-11-14T02:25:16.307Z,51.074333
2022-11-14T02:26:16.305Z,51.074440
2022-11-14T02:27:16.352Z,51.074471
2022-11-14T02:28:16.284Z,51.074459
2022-11-14T02:29:16.254Z,51.074490
2022-11-14T02:30:16.302Z,51.074459
2022-11-14T02:31:16.273Z,51.074482
2022-11-14T02:32:16.241Z,51.074482
2022-11-14T02:33:16.260Z,51.074429
2022-11-14T02:34:16.292Z,51.074417
2022-11-14T02:35:16.239Z,51.074409
2022-11-14T02:36:16.177Z,51.074242
2022-11-14T02:37:16.213Z,51.074234
2022-11-14T02:38:16.192Z,51.074402
2022-11-14T02:39:16.230Z,51.074425
2022-11-14T02:40:16.205Z,51.074444
2022-11-14T02:41:16.150Z,51.074455
2022-11-14T02:42:16.168Z,51.074467
2022-11-14T02:43:16.238Z,51.074444
2022-11-14T02:44:16.123Z,51.074471
2022-11-14T02:45:16.191Z,51.074490
2022-11-14T02:46:16.184Z,51.074482
2022-11-14T02:47:16.122Z,51.074532
2022-11-14T02:48:16.206Z,51.074478
2022-11-14T02:49:16.134Z,51.074490
2022-11-14T02:50:16.116Z,51.074493
2022-11-14T02:51:16.120Z,51.074474
2022-11-14T02:52:16.088Z,51.074429
2022-11-14T02:53:16.082Z,51.074486
2022-11-14T02:54:16.130Z,51.074383
2022-11-14T02:55:16.096Z,51.074413
2022-11-14T02:56:16.119Z,51.074448
2022-11-14T02:57:16.096Z,51.074482
2022-11-14T02:58:16.108Z,51.074417
2022-11-14T02:59:16.134Z,51.074501
2022-11-14T03:00:16.979Z,51.074512
2022-11-14T03:01:21.327Z,51.074474
2022-11-14T03:02:18.081Z,51.074471
2022-11-14T03:03:16.038Z,51.074486
2022-11-14T03:04:16.088Z,51.074448
2022-11-14T03:05:16.020Z,51.074413
2022-11-14T03:06:16.078Z,51.074394
2022-11-14T03:07:16.123Z,51.074554
2022-11-14T03:08:16.001Z,51.074490
2022-11-14T03:09:15.984Z,51.074516
2022-11-14T03:10:16.017Z,51.074593
2022-11-14T03:11:15.985Z,51.074539
2022-11-14T03:12:16.046Z,51.074482
2022-11-14T03:13:16.070Z,51.074497
2022-11-14T03:14:15.957Z,51.074310
2022-11-14T03:15:15.996Z,51.074360
2022-11-14T03:16:15.956Z,51.074303
2022-11-14T03:17:15.945Z,51.074444
2022-11-14T03:18:15.930Z,51.074398
2022-11-14T11:49:30.168Z,51.074493
2022-11-14T11:50:30.142Z,51.074463
2022-11-14T11:51:30.181Z,51.074409
2022-11-14T11:52:30.140Z,51.074440
2022-11-14T11:53:30.463Z,51.074406
2022-11-14T11:54:30.820Z,51.074436
2022-11-14T11:55:30.172Z,51.074379
2022-11-14T11:56:30.094Z,51.074448
2022-11-14T11:57:30.050Z,51.074463
2022-11-14T11:58:30.087Z,51.074429
2022-11-14T11:59:30.085Z,51.074436
2022-11-14T12:00:30.044Z,51.074455
2022-11-14T12:01:30.054Z,51.074421
2022-11-14T12:02:30.198Z,51.074429
2022-11-14T12:03:30.148Z,51.074406
2022-11-14T12:04:30.282Z,51.074535
2022-11-14T12:05:30.042Z,51.074436
2022-11-14T12:06:30.010Z,51.074467
2022-11-14T12:07:30.085Z,51.074455
2022-11-14T12:08:30.052Z,51.074413
2022-11-14T12:10:03.239Z,51.074425
2022-11-14T12:10:31.993Z,51.074444
2022-11-14T12:11:29.982Z,51.074429
2022-11-14T12:12:30.000Z,51.074425
2022-11-14T12:13:30.252Z,51.074409
2022-11-14T12:14:29.953Z,51.074402
2022-11-14T12:15:29.970Z,51.074402
2022-11-14T12:16:29.975Z,51.074318
2022-11-14T12:17:29.927Z,51.074451
2022-11-14T12:18:29.947Z,51.074394
2022-11-14T12:19:29.936Z,51.074360
2022-11-14T12:20:29.928Z,51.074406
2022-11-14T12:21:29.926Z,51.074459
2022-11-14T12:22:29.913Z,51.074497
2022-11-14T12:23:30.244Z,51.074448
2022-11-14T12:24:29.906Z,51.074421
2022-11-14T12:25:29.840Z,51.074409
2022-11-14T12:26:29.843Z,51.074436
2022-11-14T12:27:29.916Z,51.074432
2022-11-14T12:28:29.861Z,51.074474
2022-11-14T12:29:29.860Z,51.074451
2022-11-14T12:30:29.848Z,51.074455
2022-11-14T12:31:29.817Z,51.074425
2022-11-14T12:32:29.816Z,51.074486
2022-11-14T12:33:30.218Z,51.074467
2022-11-14T12:34:29.912Z,51.074478
2022-11-14T12:35:29.864Z,51.074474
2022-11-14T12:36:29.786Z,51.074440
2022-11-14T12:37:29.853Z,51.074505
2022-11-14T12:38:29.781Z,51.074478
2022-11-14T12:39:29.779Z,51.074432
2022-11-14T12:40:29.776Z,51.074440
2022-11-14T12:41:29.760Z,51.074467
2022-11-14T12:42:29.729Z,51.074482
2022-11-14T12:43:34.896Z,51.074474
2022-11-14T12:44:31.800Z,51.074486
2022-11-14T12:45:29.736Z,51.074455
2022-11-14T12:46:29.786Z,51.074413
2022-11-14T12:47:29.732Z,51.074444
2022-11-14T12:48:29.731Z,51.074509
2022-11-14T12:49:35.129Z,51.074497
2022-11-14T12:50:31.778Z,51.074501
2022-11-14T12:51:29.837Z,51.074444
2022-11-14T12:52:29.686Z,51.074451
2022-11-14T12:53:30.111Z,51.074539
2022-11-14T12:54:29.677Z,51.074482
2022-11-14T12:55:29.635Z,51.074455
2022-11-14T12:56:29.652Z,51.074474
2022-11-14T12:57:29.694Z,51.074402
2022-11-14T12:58:29.676Z,51.074474
2022-11-14T12:59:29.655Z,51.074448
2022-11-14T13:00:29.635Z,51.074467
2022-11-14T13:01:29.660Z,51.074486
2022-11-14T13:02:29.593Z,51.074467
2022-11-14T13:03:29.953Z,51.074520
2022-11-14T13:04:29.618Z,51.074474
2022-11-14T13:05:29.603Z,51.074482
2022-11-14T13:06:29.622Z,51.074520
2022-11-14T13:07:34.102Z,51.074451
2022-11-14T13:08:30.564Z,51.074467
2022-11-14T13:09:29.592Z,51.074471
2022-11-14T13:10:29.581Z,51.074474
2022-11-14T13:11:29.562Z,51.074474
2022-11-14T13:12:29.568Z,51.074455
2022-11-14T13:13:29.833Z,51.074478
2022-11-14T13:14:29.529Z,51.074471
2022-11-14T13:15:29.489Z,51.074455
2022-11-14T13:16:29.546Z,51.074497
2022-11-14T13:17:29.511Z,51.074490
2022-11-14T13:18:29.470Z,51.074482
2022-11-14T13:19:29.523Z,51.074474
2022-11-14T13:20:29.471Z,51.074440
2022-11-14T13:21:29.481Z,51.074455
2022-11-14T13:22:29.473Z,51.074467
2022-11-14T13:23:29.874Z,51.074455
2022-11-14T13:24:29.837Z,51.074467
2022-11-14T13:25:29.530Z,51.074471
2022-11-14T13:26:29.469Z,51.074478
2022-11-14T13:27:52.255Z,51.074448
2022-11-14T13:28:31.436Z,51.074459
2022-11-14T13:29:29.408Z,51.074440
2022-11-14T13:30:29.419Z,51.074493
2022-11-14T13:31:29.396Z,51.074490
2022-11-14T13:32:29.429Z,51.074520
2022-11-14T13:33:29.536Z,51.074501
2022-11-14T13:34:29.381Z,51.074528
2022-11-14T13:35:29.381Z,51.074558
2022-11-14T13:36:29.367Z,51.074539
2022-11-14T13:37:29.375Z,51.074532
2022-11-14T13:38:29.373Z,51.074501
2022-11-14T13:39:29.355Z,51.074482
2022-11-14T13:40:29.348Z,51.074497
2022-11-14T13:41:46.135Z,51.074505
2022-11-14T13:42:31.304Z,51.074509
2022-11-14T13:43:29.817Z,51.074516
2022-11-14T13:44:29.327Z,51.074524
2022-11-14T13:45:29.293Z,51.074539
2022-11-14T13:46:29.275Z,51.074520
2022-11-14T13:47:29.281Z,51.074516
2022-11-14T13:48:29.315Z,51.074501
2022-11-14T13:49:29.271Z,51.074520
2022-11-14T13:50:29.296Z,51.074547
2022-11-14T13:51:42.844Z,51.074532
2022-11-14T13:52:31.254Z,51.074554
2022-11-14T13:53:29.596Z,51.074547
2022-11-14T13:54:29.219Z,51.074501
2022-11-14T13:55:29.220Z,51.074505
2022-11-14T13:56:29.211Z,51.074547
2022-11-14T13:57:29.237Z,51.074524
2022-11-14T13:58:29.250Z,51.074512
2022-11-14T13:59:29.219Z,51.074497
2022-11-14T14:00:29.226Z,51.074528
2022-11-14T14:01:29.314Z,51.074551
2022-11-14T14:02:29.177Z,51.074593
2022-11-14T14:03:29.403Z,51.074570
2022-11-14T14:04:29.218Z,51.074539
2022-11-14T14:05:29.194Z,51.074635
2022-11-14T14:06:29.270Z,51.074661
2022-11-14T14:07:29.189Z,51.074661
2022-11-14T14:08:29.168Z,51.074738
2022-11-14T14:09:29.116Z,51.074657
2022-11-14T14:10:29.120Z,51.074596
2022-11-14T14:11:29.111Z,51.074512
2022-11-14T14:12:29.129Z,51.074432
2022-11-14T14:13:29.418Z,51.074459
2022-11-14T14:14:29.114Z,51.074543
2022-11-14T14:15:29.113Z,51.074501
2022-11-14T14:16:29.104Z,51.074562
2022-11-14T14:17:29.105Z,51.074574
2022-11-14T14:18:29.461Z,51.074585
2022-11-14T14:19:29.046Z,51.074627
2022-11-14T14:20:29.071Z,51.074577
2022-11-14T14:21:29.079Z,51.074596
2022-11-14T14:22:29.021Z,51.074535
2022-11-14T14:23:29.019Z,51.074562
2022-11-14T14:24:29.058Z,51.074581
2022-11-14T14:25:29.015Z,51.074570
2022-11-14T14:26:28.990Z,51.074558
2022-11-14T14:27:29.011Z,51.074482
2022-11-14T14:28:29.371Z,51.074471
2022-11-14T14:29:28.956Z,51.074539
2022-11-14T14:30:29.038Z,51.074558
2022-11-14T14:31:28.981Z,51.074570
2022-11-14T14:32:28.947Z,51.074551
2022-11-14T14:33:28.952Z,51.074520
2022-11-14T14:34:28.995Z,51.074532
2022-11-14T14:35:28.970Z,51.074577
2022-11-14T14:36:28.934Z,51.074509
2022-11-14T14:37:28.908Z,51.074471
2022-11-14T14:38:29.113Z,51.074486
2022-11-14T14:39:28.903Z,51.074493
2022-11-14T14:40:28.936Z,51.074413
2022-11-14T14:41:28.901Z,51.074520
2022-11-14T14:42:34.686Z,51.074574
2022-11-14T14:43:30.869Z,51.074478
2022-11-14T14:44:28.857Z,51.074497
2022-11-14T14:45:28.894Z,51.074429
2022-11-14T14:46:28.862Z,51.074471
2022-11-14T14:47:28.892Z,51.074497
2022-11-14T14:48:29.255Z,51.074444
2022-11-14T14:49:28.821Z,51.074478
2022-11-14T14:50:28.846Z,51.074425
2022-11-14T14:51:28.865Z,51.074448
2022-11-14T14:52:28.814Z,51.074497
2022-11-14T14:53:28.835Z,51.074493
2022-11-14T14:54:28.849Z,51.074497
2022-11-14T14:55:28.870Z,51.074490
2022-11-14T14:56:28.813Z,51.074478
2022-11-14T14:57:28.773Z,51.074474
2022-11-14T14:58:29.293Z,51.074467
2022-11-14T14:59:28.744Z,51.074482
2022-11-14T15:00:28.766Z,51.074509
2022-11-14T15:01:28.825Z,51.074474
2022-11-14T15:02:28.738Z,51.074490
2022-11-14T15:03:32.821Z,51.074478
2022-11-14T15:04:29.762Z,51.074524
2022-11-14T15:05:28.738Z,51.074501
2022-11-14T15:06:28.757Z,51.074486
2022-11-14T15:07:28.769Z,51.074501
2022-11-14T15:08:29.137Z,51.074551
2022-11-14T15:09:28.689Z,51.074524
2022-11-14T15:10:28.720Z,51.074440
2022-11-14T15:11:32.601Z,51.074497
2022-11-14T15:12:29.679Z,51.074474
2022-11-14T15:13:28.685Z,51.074490
2022-11-14T15:14:28.682Z,51.074478
2022-11-14T15:15:28.681Z,51.074463
2022-11-14T15:16:28.630Z,51.074471
2022-11-14T15:17:34.466Z,51.074493
2022-11-14T15:18:30.935Z,51.074539
2022-11-14T15:19:28.614Z,51.074497
2022-11-14T15:20:28.646Z,51.074471
2022-11-14T15:21:28.647Z,51.074474
2022-11-14T15:22:29.381Z,51.074474
2022-11-14T15:23:28.620Z,51.074455
2022-11-14T15:24:28.564Z,51.074451
2022-11-14T15:25:28.564Z,51.074577
2022-11-14T15:26:28.585Z,51.074490
2022-11-14T15:27:28.557Z,51.074463
2022-11-14T15:28:28.957Z,51.074486
2022-11-14T15:29:28.535Z,51.074493
2022-11-14T15:30:28.566Z,51.074444
2022-11-14T15:31:29.309Z,51.074535
2022-11-14T15:32:28.531Z,51.074471
2022-11-14T15:33:28.554Z,51.074482
2022-11-14T15:34:28.546Z,51.074467
2022-11-14T15:35:28.538Z,51.074490
2022-11-14T15:36:28.498Z,51.074516
2022-11-14T15:37:28.475Z,51.074497
2022-11-14T15:38:43.489Z,51.074497
2022-11-14T15:39:30.530Z,51.074505
2022-11-14T15:40:28.521Z,51.074505
2022-11-14T15:41:28.518Z,51.074512
2022-11-14T15:42:28.503Z,51.074486
2022-11-14T15:43:28.480Z,51.074451
2022-11-14T15:44:28.532Z,51.074425
2022-11-14T15:45:28.448Z,51.074482
2022-11-14T15:46:28.486Z,51.074482
2022-11-14T15:47:28.434Z,51.074493
2022-11-14T15:48:28.736Z,51.074463
2022-11-14T15:49:28.404Z,51.074520
2022-11-14T15:50:28.393Z,51.074501
2022-11-14T15:51:28.433Z,51.074497
2022-11-14T15:52:28.428Z,51.074486
2022-11-14T15:53:28.740Z,51.074482
2022-11-14T15:54:28.411Z,51.074509
2022-11-14T15:55:28.417Z,51.074467
2022-11-14T15:56:28.351Z,51.074474
2022-11-14T15:57:28.335Z,51.074512
2022-11-14T15:58:29.335Z,51.074497
2022-11-14T15:59:29.347Z,51.074486
2022-11-14T16:00:28.350Z,51.074474
2022-11-14T16:01:28.416Z,51.074471
2022-11-14T16:02:28.312Z,51.074471
2022-11-14T16:03:28.527Z,51.074448
2022-11-14T16:04:28.296Z,51.074467
2022-11-14T16:05:28.288Z,51.074486
2022-11-14T16:06:28.293Z,51.074501
2022-11-14T16:07:28.335Z,51.074463
2022-11-14T16:08:28.430Z,51.074509
2022-11-14T16:09:29.298Z,51.074490
2022-11-14T16:10:30.395Z,51.074501
2022-11-14T16:11:28.260Z,51.074425
2022-11-14T16:12:28.759Z,51.074467
2022-11-14T16:13:28.324Z,51.074459
2022-11-14T16:14:28.263Z,51.074440
2022-11-14T16:15:28.231Z,51.074451
2022-11-14T16:16:28.219Z,51.074501
2022-11-14T16:17:28.205Z,51.074474
2022-11-14T16:18:28.281Z,51.074455
2022-11-14T16:19:28.241Z,51.074524
2022-11-14T16:20:28.222Z,51.074509
2022-11-14T16:21:28.200Z,51.074490
2022-11-14T16:22:28.252Z,51.074467
2022-11-14T16:23:28.400Z,51.074451
2022-11-14T16:24:33.487Z,51.074478
2022-11-14T16:25:30.168Z,51.074451
2022-11-14T16:26:29.751Z,51.074467
2022-11-14T16:27:28.148Z,51.074482
2022-11-14T16:28:28.214Z,51.074436
2022-11-14T16:29:28.105Z,51.074406
2022-11-14T16:30:28.136Z,51.074474
2022-11-14T16:31:28.118Z,51.074448
2022-11-14T16:32:28.121Z,51.074429
2022-11-14T16:33:28.342Z,51.074417
2022-11-14T16:34:28.123Z,51.074467
2022-11-14T16:35:28.117Z,51.074421
2022-11-14T16:36:28.092Z,51.074429
2022-11-14T16:37:28.103Z,51.074421
2022-11-14T16:38:28.092Z,51.074455
2022-11-14T16:39:28.059Z,51.074459
2022-11-14T16:40:28.102Z,51.074451
2022-11-14T16:41:28.063Z,51.074440
2022-11-14T16:42:28.052Z,51.074444
2022-11-14T16:43:28.697Z,51.074440
2022-11-14T16:44:28.091Z,51.074455
2022-11-14T16:45:28.054Z,51.074486
2022-11-14T16:46:28.056Z,51.074512
2022-11-14T16:47:27.995Z,51.074490
2022-11-14T16:48:28.987Z,51.074520
2022-11-14T16:49:28.050Z,51.074509
2022-11-14T16:50:28.004Z,51.074436
2022-11-14T16:52:29.992Z,51.074425
2022-11-14T16:53:28.099Z,51.074448
2022-11-14T16:54:27.933Z,51.074440
2022-11-14T16:55:27.976Z,51.074455
2022-11-14T16:56:27.965Z,51.074406
2022-11-14T16:57:27.970Z,51.074459
2022-11-14T16:58:27.956Z,51.074497
2022-11-14T16:59:28.974Z,51.074490
2022-11-14T17:00:28.030Z,51.074493
2022-11-14T17:01:27.939Z,51.074501
2022-11-14T17:02:28.609Z,51.074451
2022-11-14T17:03:28.025Z,51.074478
2022-11-14T17:04:27.892Z,51.074482
2022-11-14T17:05:27.930Z,51.074474
2022-11-14T17:06:27.866Z,51.074467
2022-11-14T17:07:27.954Z,51.074490
2022-11-14T17:08:27.910Z,51.074467
2022-11-14T17:09:27.857Z,51.074501
2022-11-14T17:10:27.870Z,51.074463
2022-11-14T17:11:27.847Z,51.074482
2022-11-14T17:12:27.827Z,51.074471
2022-11-14T17:13:27.819Z,51.074432
2022-11-14T17:14:27.806Z,51.074448
2022-11-14T17:15:27.851Z,51.074440
2022-11-14T17:16:27.793Z,51.074436
2022-11-14T17:17:27.807Z,51.074394
2022-11-14T17:18:28.218Z,51.074417
2022-11-14T17:19:27.767Z,51.074463
2022-11-14T17:20:27.772Z,51.074440
2022-11-14T17:21:27.755Z,51.074375
2022-11-14T17:22:27.769Z,51.074448
2022-11-14T17:23:27.750Z,51.074448
2022-11-14T17:24:31.377Z,51.074444
2022-11-14T17:25:28.779Z,51.074429
2022-11-14T17:26:27.744Z,51.074448
2022-11-14T17:27:27.711Z,51.074429
2022-11-14T17:28:27.747Z,51.074440
2022-11-14T17:29:27.696Z,51.074455
2022-11-14T17:30:27.701Z,51.074493
2022-11-14T17:31:27.698Z,51.074451
2022-11-14T17:32:27.664Z,51.074455
2022-11-14T17:33:27.978Z,51.074482
2022-11-14T17:34:27.649Z,51.074448
2022-11-14T17:35:27.696Z,51.074406
2022-11-14T17:36:27.671Z,51.074463
2022-11-14T17:37:27.646Z,51.074455
2022-11-14T17:38:27.640Z,51.074451
2022-11-14T17:39:27.632Z,51.074471
2022-11-14T17:40:27.660Z,51.074493
2022-11-14T17:41:27.619Z,51.074448
2022-11-14T17:42:27.614Z,51.074463
2022-11-14T17:43:27.689Z,51.074413
2022-11-14T17:44:27.630Z,51.074459
2022-11-14T17:45:27.602Z,51.074474
2022-11-14T17:46:27.589Z,51.074532
2022-11-14T17:47:27.579Z,51.074577
2022-11-14T17:48:27.602Z,51.074478
2022-11-14T17:49:27.540Z,51.074547
2022-11-14T17:50:27.553Z,51.074497
2022-11-14T17:51:27.545Z,51.074409
2022-11-14T17:52:27.565Z,51.074417
2022-11-14T17:53:27.579Z,51.074539
2022-11-14T17:54:27.524Z,51.074509
2022-11-14T17:55:27.561Z,51.074390
2022-11-14T17:56:27.720Z,51.074535
2022-11-14T17:57:27.479Z,51.074520
2022-11-14T17:58:27.571Z,51.074493
2022-11-14T17:59:27.478Z,51.074451
2022-11-14T18:00:27.456Z,51.074429
2022-11-14T18:01:27.595Z,51.074394
2022-11-14T18:02:27.469Z,51.074432
2022-11-14T18:03:27.469Z,51.074417
2022-11-14T18:04:27.458Z,51.074432
2022-11-14T18:05:27.432Z,51.074448
2022-11-14T18:06:27.464Z,51.074436
2022-11-14T18:07:27.517Z,51.074429
2022-11-14T18:08:29.008Z,51.074444
2022-11-14T18:09:27.427Z,51.074425
2022-11-14T18:10:27.451Z,51.074425
2022-11-14T18:11:27.432Z,51.074520
2022-11-14T18:12:27.408Z,51.074467
2022-11-14T18:13:27.384Z,51.074463
2022-11-14T18:14:27.418Z,51.074516
2022-11-14T18:15:28.317Z,51.074539
2022-11-14T18:16:44.503Z,51.074516
2022-11-14T18:17:29.366Z,51.074471
2022-11-14T18:18:27.384Z,51.074471
2022-11-14T18:19:27.354Z,51.074467
